AAL169 KLAX-RJTT
Flight info
| Callsign | AAL169 |
|---|---|
| Flight time | N/A |
| Altitude | 36000 |
| Route | SUMMR2 SCTRR DCT SNS DCT PEBLL DCT REDWD DCT UNVER DCT 42N130W 48N140W/N0483F380 53N150W 53N160W 53N170W/N0490F400 53N180E DCT AAMYY DCT AKISU DCT KALIG KALNA OTR5 ADNAP Y807 POLIX |
| Aircraft | A359/H-SDE2E3GHIJ3J4J5LM1ORWXY/LB1D1 |
Departure
| Time | N/A |
|---|---|
| Airport | Los Angeles International Airport (KLAX) |
Arrival
| Time | 2026-05-07 08:30 |
|---|---|
| Airport | Tokyo Haneda International Airport (RJTT) |
| Time | Latitude | Longitude | Altitude | Speed | Heading |
|---|---|---|---|---|---|
| 2026-05-07 07:45 | 36.36370 | 142.97726 | 35964 ft | 431 kts | 248° |
| 2026-05-07 07:45 | 36.35250 | 142.94283 | 35961 ft | 431 kts | 248° |
| 2026-05-07 07:46 | 36.33005 | 142.87394 | 35966 ft | 430 kts | 248° |
| 2026-05-07 07:46 | 36.30756 | 142.80506 | 35961 ft | 430 kts | 248° |
| 2026-05-07 07:47 | 36.28504 | 142.73628 | 35960 ft | 430 kts | 248° |
| 2026-05-07 07:47 | 36.26248 | 142.66751 | 35959 ft | 431 kts | 248° |
| 2026-05-07 07:48 | 36.23986 | 142.59874 | 35952 ft | 431 kts | 248° |
| 2026-05-07 07:48 | 36.21722 | 142.53006 | 35954 ft | 431 kts | 248° |
| 2026-05-07 07:49 | 36.19468 | 142.46184 | 35953 ft | 431 kts | 248° |
| 2026-05-07 07:49 | 36.17187 | 142.39332 | 35949 ft | 431 kts | 247° |
| 2026-05-07 07:50 | 36.14760 | 142.32559 | 35948 ft | 430 kts | 245° |
| 2026-05-07 07:50 | 36.12273 | 142.25814 | 35945 ft | 430 kts | 245° |
| 2026-05-07 07:51 | 36.09805 | 142.19071 | 35943 ft | 430 kts | 246° |
| 2026-05-07 07:51 | 36.07369 | 142.12369 | 35941 ft | 430 kts | 246° |
| 2026-05-07 07:52 | 36.04930 | 142.05622 | 35939 ft | 430 kts | 246° |
| 2026-05-07 07:52 | 36.02505 | 141.98865 | 35935 ft | 430 kts | 246° |
| 2026-05-07 07:53 | 36.00074 | 141.92107 | 35949 ft | 430 kts | 246° |
| 2026-05-07 07:53 | 35.97638 | 141.85357 | 35949 ft | 431 kts | 246° |
| 2026-05-07 07:54 | 35.95377 | 141.78515 | 35943 ft | 431 kts | 252° |
| 2026-05-07 07:54 | 35.94430 | 141.71176 | 35942 ft | 435 kts | 265° |
| 2026-05-07 07:55 | 35.94379 | 141.63723 | 35942 ft | 437 kts | 267° |
| 2026-05-07 07:55 | 35.94475 | 141.56214 | 35937 ft | 437 kts | 268° |
| 2026-05-07 07:56 | 35.94551 | 141.48715 | 35937 ft | 437 kts | 267° |
| 2026-05-07 07:56 | 35.94591 | 141.41194 | 35934 ft | 438 kts | 267° |
| 2026-05-07 07:57 | 35.94614 | 141.33673 | 35931 ft | 438 kts | 266° |
| 2026-05-07 07:57 | 35.94630 | 141.26133 | 35928 ft | 439 kts | 266° |
| 2026-05-07 07:58 | 35.94646 | 141.18632 | 35931 ft | 439 kts | 266° |
| 2026-05-07 07:58 | 35.94656 | 141.11086 | 35932 ft | 440 kts | 266° |
| 2026-05-07 07:59 | 35.94658 | 141.03538 | 35926 ft | 440 kts | 266° |
| 2026-05-07 07:59 | 35.95258 | 140.95991 | 35921 ft | 450 kts | 282° |
| 2026-05-07 08:00 | 35.98034 | 140.88945 | 35921 ft | 462 kts | 294° |
| 2026-05-07 08:00 | 36.01453 | 140.82189 | 35915 ft | 466 kts | 297° |
| 2026-05-07 08:01 | 36.04993 | 140.75465 | 35908 ft | 467 kts | 297° |
| 2026-05-07 08:01 | 36.08481 | 140.68739 | 35897 ft | 469 kts | 297° |
| 2026-05-07 08:02 | 36.11966 | 140.61900 | 35890 ft | 470 kts | 297° |
| 2026-05-07 08:02 | 36.15380 | 140.55170 | 35195 ft | 448 kts | 297° |
| 2026-05-07 08:02 | 36.17017 | 140.51923 | 34167 ft | 443 kts | 297° |
| 2026-05-07 08:03 | 36.18637 | 140.48694 | 33043 ft | 440 kts | 297° |
| 2026-05-07 08:03 | 36.20260 | 140.45496 | 32003 ft | 435 kts | 300° |
| 2026-05-07 08:03 | 36.22285 | 140.42699 | 30986 ft | 439 kts | 316° |
| 2026-05-07 08:03 | 36.24774 | 140.40580 | 30069 ft | 439 kts | 323° |
| 2026-05-07 08:04 | 36.27355 | 140.38653 | 29422 ft | 425 kts | 324° |
| 2026-05-07 08:04 | 36.29845 | 140.36779 | 28720 ft | 413 kts | 323° |
| 2026-05-07 08:04 | 36.32260 | 140.34917 | 27931 ft | 404 kts | 323° |
| 2026-05-07 08:04 | 36.34617 | 140.33070 | 27140 ft | 397 kts | 323° |
| 2026-05-07 08:05 | 36.36928 | 140.31240 | 26362 ft | 390 kts | 323° |
| 2026-05-07 08:05 | 36.38994 | 140.29150 | 25551 ft | 376 kts | 306° |
| 2026-05-07 08:05 | 36.40285 | 140.26434 | 24770 ft | 360 kts | 285° |
| 2026-05-07 08:05 | 36.40641 | 140.23439 | 23986 ft | 348 kts | 264° |
| 2026-05-07 08:06 | 36.40074 | 140.20582 | 23386 ft | 336 kts | 248° |
| 2026-05-07 08:06 | 36.39236 | 140.17956 | 23003 ft | 319 kts | 248° |
| 2026-05-07 08:06 | 36.38515 | 140.15466 | 22667 ft | 302 kts | 251° |
| 2026-05-07 08:06 | 36.37894 | 140.13038 | 22304 ft | 288 kts | 252° |
| 2026-05-07 08:07 | 36.37346 | 140.10675 | 21810 ft | 282 kts | 253° |
| 2026-05-07 08:07 | 36.36840 | 140.08345 | 21218 ft | 278 kts | 254° |
| 2026-05-07 08:07 | 36.36358 | 140.06034 | 20595 ft | 275 kts | 254° |
| 2026-05-07 08:07 | 36.35870 | 140.03748 | 19994 ft | 272 kts | 251° |
| 2026-05-07 08:08 | 36.34920 | 140.01750 | 19320 ft | 272 kts | 224° |
| 2026-05-07 08:08 | 36.33274 | 140.00672 | 18675 ft | 278 kts | 194° |
| 2026-05-07 08:08 | 36.31318 | 140.00730 | 18084 ft | 284 kts | 175° |
| 2026-05-07 08:08 | 36.29384 | 140.01216 | 17474 ft | 282 kts | 173° |
| 2026-05-07 08:09 | 36.27483 | 140.01733 | 16895 ft | 277 kts | 173° |
| 2026-05-07 08:09 | 36.25610 | 140.02224 | 16342 ft | 273 kts | 174° |
| 2026-05-07 08:09 | 36.23763 | 140.02683 | 15795 ft | 268 kts | 174° |
| 2026-05-07 08:09 | 36.21944 | 140.03116 | 15260 ft | 264 kts | 175° |
| 2026-05-07 08:10 | 36.20144 | 140.03533 | 14726 ft | 261 kts | 175° |
| 2026-05-07 08:10 | 36.18382 | 140.04019 | 14182 ft | 261 kts | 168° |
| 2026-05-07 08:10 | 36.16819 | 140.05241 | 13614 ft | 274 kts | 143° |
| 2026-05-07 08:10 | 36.15547 | 140.07002 | 13035 ft | 274 kts | 137° |
| 2026-05-07 08:11 | 36.14344 | 140.08826 | 12439 ft | 272 kts | 136° |
| 2026-05-07 08:11 | 36.13152 | 140.10638 | 11838 ft | 271 kts | 136° |
| 2026-05-07 08:11 | 36.11962 | 140.12434 | 11274 ft | 269 kts | 135° |
| 2026-05-07 08:11 | 36.10774 | 140.14194 | 10738 ft | 264 kts | 137° |
| 2026-05-07 08:12 | 36.09397 | 140.15579 | 10174 ft | 255 kts | 154° |
| 2026-05-07 08:12 | 36.07832 | 140.16597 | 9606 ft | 253 kts | 158° |
| 2026-05-07 08:12 | 36.06250 | 140.17529 | 9008 ft | 251 kts | 159° |
| 2026-05-07 08:12 | 36.04670 | 140.18438 | 8454 ft | 249 kts | 159° |
| 2026-05-07 08:13 | 36.03104 | 140.19334 | 7956 ft | 244 kts | 159° |
| 2026-05-07 08:13 | 36.01518 | 140.19923 | 7906 ft | 236 kts | 175° |
| 2026-05-07 08:13 | 36.00438 | 140.20041 | 7904 ft | 234 kts | 180° |
| 2026-05-07 08:13 | 35.98264 | 140.20112 | 7907 ft | 233 kts | 182° |
| 2026-05-07 08:14 | 35.97187 | 140.20132 | 7905 ft | 233 kts | 182° |
| 2026-05-07 08:14 | 35.95563 | 140.20160 | 7902 ft | 233 kts | 182° |
| 2026-05-07 08:14 | 35.93944 | 140.20186 | 7903 ft | 233 kts | 183° |
| 2026-05-07 08:14 | 35.92329 | 140.20164 | 7895 ft | 231 kts | 189° |
| 2026-05-07 08:15 | 35.90408 | 140.19231 | 7874 ft | 224 kts | 222° |
| 2026-05-07 08:15 | 35.89481 | 140.17708 | 7839 ft | 223 kts | 243° |
| 2026-05-07 08:15 | 35.89044 | 140.16539 | 7771 ft | 223 kts | 246° |
| 2026-05-07 08:15 | 35.88452 | 140.14772 | 7664 ft | 223 kts | 247° |
| 2026-05-07 08:16 | 35.87877 | 140.13021 | 7566 ft | 223 kts | 248° |
| 2026-05-07 08:16 | 35.87375 | 140.11500 | 7468 ft | 223 kts | 247° |
| 2026-05-07 08:16 | 35.86783 | 140.09734 | 7345 ft | 223 kts | 247° |
| 2026-05-07 08:17 | 35.86182 | 140.07963 | 7249 ft | 224 kts | 247° |
| 2026-05-07 08:17 | 35.85577 | 140.06196 | 7154 ft | 223 kts | 246° |
| 2026-05-07 08:17 | 35.84971 | 140.04434 | 7028 ft | 224 kts | 247° |
| 2026-05-07 08:17 | 35.84364 | 140.02668 | 6924 ft | 224 kts | 246° |
| 2026-05-07 08:18 | 35.83752 | 140.00905 | 6821 ft | 224 kts | 246° |
| 2026-05-07 08:18 | 35.83149 | 139.99161 | 6711 ft | 224 kts | 247° |
| 2026-05-07 08:18 | 35.82535 | 139.97377 | 6601 ft | 223 kts | 246° |
| 2026-05-07 08:18 | 35.81923 | 139.95617 | 6493 ft | 223 kts | 246° |
| 2026-05-07 08:19 | 35.81320 | 139.93881 | 6372 ft | 223 kts | 246° |
| 2026-05-07 08:19 | 35.80823 | 139.92047 | 6381 ft | 238 kts | 258° |
| 2026-05-07 08:19 | 35.80722 | 139.89895 | 6362 ft | 258 kts | 270° |
| 2026-05-07 08:19 | 35.80854 | 139.87737 | 6273 ft | 247 kts | 274° |
| 2026-05-07 08:20 | 35.81032 | 139.85668 | 6144 ft | 238 kts | 274° |
| 2026-05-07 08:20 | 35.81211 | 139.83679 | 6005 ft | 229 kts | 274° |
| 2026-05-07 08:20 | 35.81390 | 139.81766 | 5887 ft | 224 kts | 275° |
| 2026-05-07 08:20 | 35.81571 | 139.79856 | 5758 ft | 224 kts | 275° |
| 2026-05-07 08:21 | 35.81748 | 139.77949 | 5624 ft | 224 kts | 275° |
| 2026-05-07 08:21 | 35.81922 | 139.76038 | 5494 ft | 224 kts | 274° |
| 2026-05-07 08:21 | 35.82090 | 139.74129 | 5387 ft | 222 kts | 274° |
| 2026-05-07 08:21 | 35.82163 | 139.72277 | 5307 ft | 210 kts | 269° |
| 2026-05-07 08:22 | 35.82173 | 139.70521 | 5119 ft | 202 kts | 269° |
| 2026-05-07 08:22 | 35.82170 | 139.68816 | 4938 ft | 195 kts | 268° |
| 2026-05-07 08:22 | 35.82162 | 139.67163 | 4816 ft | 196 kts | 268° |
| 2026-05-07 08:22 | 35.82036 | 139.65515 | 4694 ft | 194 kts | 254° |
| 2026-05-07 08:23 | 35.81345 | 139.64110 | 4550 ft | 194 kts | 221° |
| 2026-05-07 08:23 | 35.80123 | 139.63457 | 4437 ft | 194 kts | 190° |
| 2026-05-07 08:23 | 35.78771 | 139.63443 | 4310 ft | 195 kts | 175° |
| 2026-05-07 08:23 | 35.77462 | 139.63903 | 4187 ft | 195 kts | 161° |
| 2026-05-07 08:24 | 35.76296 | 139.64630 | 4155 ft | 180 kts | 154° |
| 2026-05-07 08:24 | 35.75256 | 139.65355 | 4132 ft | 164 kts | 154° |
| 2026-05-07 08:24 | 35.74307 | 139.66017 | 4062 ft | 151 kts | 154° |
| 2026-05-07 08:24 | 35.73413 | 139.66655 | 3862 ft | 147 kts | 154° |
| 2026-05-07 08:25 | 35.72532 | 139.67282 | 3654 ft | 146 kts | 154° |
| 2026-05-07 08:25 | 35.71671 | 139.67896 | 3421 ft | 144 kts | 155° |
| 2026-05-07 08:25 | 35.70807 | 139.68512 | 3230 ft | 143 kts | 155° |
| 2026-05-07 08:25 | 35.69944 | 139.69128 | 3041 ft | 143 kts | 155° |
| 2026-05-07 08:26 | 35.68236 | 139.70347 | 2676 ft | 141 kts | 155° |
| 2026-05-07 08:26 | 35.67394 | 139.70950 | 2495 ft | 140 kts | 156° |
| 2026-05-07 08:26 | 35.66550 | 139.71552 | 2328 ft | 139 kts | 156° |
| 2026-05-07 08:27 | 35.65713 | 139.72144 | 2175 ft | 139 kts | 156° |
| 2026-05-07 08:27 | 35.64886 | 139.72761 | 2029 ft | 138 kts | 154° |
| 2026-05-07 08:27 | 35.64086 | 139.73404 | 1901 ft | 137 kts | 153° |
| 2026-05-07 08:27 | 35.63268 | 139.73991 | 1714 ft | 135 kts | 156° |
| 2026-05-07 08:28 | 35.62453 | 139.74542 | 1484 ft | 132 kts | 156° |
| 2026-05-07 08:28 | 35.61649 | 139.75078 | 1293 ft | 131 kts | 156° |
| 2026-05-07 08:28 | 35.60848 | 139.75627 | 1118 ft | 133 kts | 153° |
| 2026-05-07 08:28 | 35.60051 | 139.76186 | 942 ft | 134 kts | 153° |
| 2026-05-07 08:29 | 35.59246 | 139.76769 | 743 ft | 135 kts | 153° |
| 2026-05-07 08:29 | 35.58442 | 139.77348 | 539 ft | 134 kts | 154° |
| 2026-05-07 08:29 | 35.57624 | 139.77928 | 332 ft | 136 kts | 154° |
| 2026-05-07 08:29 | 35.56816 | 139.78490 | 139 ft | 131 kts | 152° |
| 2026-05-07 08:30 | 35.56043 | 139.79035 | 31 ft | 122 kts | 150° |
| 2026-05-07 08:30 | 35.55430 | 139.79476 | 30 ft | 86 kts | 150° |
| 2026-05-07 08:30 | 35.54985 | 139.79790 | 30 ft | 60 kts | 151° |
| 2026-05-07 08:30 | 35.54748 | 139.79915 | 30 ft | 25 kts | 169° |
| 2026-05-07 08:31 | 35.54600 | 139.79896 | 28 ft | 17 kts | 220° |
| 2026-05-07 08:31 | 35.54533 | 139.79784 | 29 ft | 13 kts | 226° |
| 2026-05-07 08:31 | 35.54476 | 139.79745 | 29 ft | 7 kts | 224° |
| 2026-05-07 08:31 | 35.54461 | 139.79708 | 29 ft | 6 kts | 241° |
| 2026-05-07 08:32 | 35.54450 | 139.79685 | 29 ft | 0 kts | 241° |
| 2026-05-07 08:32 | 35.54446 | 139.79676 | 29 ft | 2 kts | 241° |
| 2026-05-07 08:32 | 35.54441 | 139.79613 | 29 ft | 14 kts | 272° |
| 2026-05-07 08:33 | 35.54403 | 139.79496 | 29 ft | 14 kts | 241° |
| 2026-05-07 08:33 | 35.54368 | 139.79417 | 29 ft | 0 kts | 241° |